sensor_id;sensor_type;location;lat;lon;timestamp;P1;durP1;ratioP1;P2;durP2;ratioP2
20794;SDS011;28087;-33.874;151.240;2023-10-09T00:03:28;5.82;;;1.10;;
20794;SDS011;28087;-33.874;151.240;2023-10-09T00:06:35;3.78;;;1.00;;
20794;SDS011;28087;-33.874;151.240;2023-10-09T00:09:44;4.10;;;1.05;;
20794;SDS011;28087;-33.874;151.240;2023-10-09T00:12:46;6.60;;;1.23;;
20794;SDS011;28087;-33.874;151.240;2023-10-09T00:15:47;5.47;;;1.00;;
20794;SDS011;28087;-33.874;151.240;2023-10-09T00:18:59;6.00;;;1.00;;
20794;SDS011;28087;-33.874;151.240;2023-10-09T00:22:14;2.92;;;0.80;;
20794;SDS011;28087;-33.874;151.240;2023-10-09T00:25:30;4.47;;;1.00;;
20794;SDS011;28087;-33.874;151.240;2023-10-09T00:28:45;3.97;;;1.00;;
20794;SDS011;28087;-33.874;151.240;2023-10-09T00:31:53;3.20;;;0.77;;
20794;SDS011;28087;-33.874;151.240;2023-10-09T00:35:10;5.05;;;1.00;;
20794;SDS011;28087;-33.874;151.240;2023-10-09T00:38:43;4.30;;;0.90;;
20794;SDS011;28087;-33.874;151.240;2023-10-09T00:41:50;5.72;;;1.33;;
20794;SDS011;28087;-33.874;151.240;2023-10-09T00:44:59;3.22;;;0.95;;
20794;SDS011;28087;-33.874;151.240;2023-10-09T00:48:13;3.67;;;0.90;;
20794;SDS011;28087;-33.874;151.240;2023-10-09T00:51:28;3.63;;;1.05;;
20794;SDS011;28087;-33.874;151.240;2023-10-09T00:54:38;4.82;;;1.00;;
20794;SDS011;28087;-33.874;151.240;2023-10-09T00:57:51;3.25;;;1.00;;
20794;SDS011;28087;-33.874;151.240;2023-10-09T01:01:08;4.05;;;1.10;;
20794;SDS011;28087;-33.874;151.240;2023-10-09T01:04:17;6.65;;;1.10;;
20794;SDS011;28087;-33.874;151.240;2023-10-09T01:07:26;4.60;;;0.90;;
20794;SDS011;28087;-33.874;151.240;2023-10-09T01:10:44;6.30;;;1.27;;
20794;SDS011;28087;-33.874;151.240;2023-10-09T01:13:53;2.60;;;1.00;;
20794;SDS011;28087;-33.874;151.240;2023-10-09T01:17:15;5.03;;;1.10;;
20794;SDS011;28087;-33.874;151.240;2023-10-09T01:20:32;6.47;;;1.35;;
20794;SDS011;28087;-33.874;151.240;2023-10-09T01:23:44;4.85;;;1.15;;
20794;SDS011;28087;-33.874;151.240;2023-10-09T01:27:08;6.22;;;1.30;;
20794;SDS011;28087;-33.874;151.240;2023-10-09T01:30:17;5.50;;;1.20;;
20794;SDS011;28087;-33.874;151.240;2023-10-09T01:33:24;7.47;;;1.30;;
20794;SDS011;28087;-33.874;151.240;2023-10-09T01:36:36;6.35;;;1.20;;
20794;SDS011;28087;-33.874;151.240;2023-10-09T01:39:47;4.55;;;1.00;;
20794;SDS011;28087;-33.874;151.240;2023-10-09T01:42:56;6.05;;;1.17;;
20794;SDS011;28087;-33.874;151.240;2023-10-09T01:46:07;5.90;;;1.40;;
20794;SDS011;28087;-33.874;151.240;2023-10-09T01:49:29;4.35;;;1.20;;
20794;SDS011;28087;-33.874;151.240;2023-10-09T01:52:38;4.68;;;1.20;;
20794;SDS011;28087;-33.874;151.240;2023-10-09T01:55:47;5.47;;;1.10;;
20794;SDS011;28087;-33.874;151.240;2023-10-09T01:58:55;5.75;;;1.10;;
20794;SDS011;28087;-33.874;151.240;2023-10-09T02:02:07;6.80;;;1.27;;
20794;SDS011;28087;-33.874;151.240;2023-10-09T02:05:27;6.95;;;1.15;;
20794;SDS011;28087;-33.874;151.240;2023-10-09T02:08:35;8.27;;;1.60;;
20794;SDS011;28087;-33.874;151.240;2023-10-09T02:11:46;4.43;;;1.10;;
20794;SDS011;28087;-33.874;151.240;2023-10-09T02:14:56;5.35;;;1.30;;
20794;SDS011;28087;-33.874;151.240;2023-10-09T02:18:04;6.78;;;1.83;;
20794;SDS011;28087;-33.874;151.240;2023-10-09T02:21:28;5.15;;;1.55;;
20794;SDS011;28087;-33.874;151.240;2023-10-09T02:24:36;7.53;;;1.50;;
20794;SDS011;28087;-33.874;151.240;2023-10-09T02:27:57;4.78;;;1.20;;
20794;SDS011;28087;-33.874;151.240;2023-10-09T02:31:09;5.53;;;1.20;;
20794;SDS011;28087;-33.874;151.240;2023-10-09T02:34:21;4.00;;;0.90;;
20794;SDS011;28087;-33.874;151.240;2023-10-09T02:37:35;4.40;;;1.05;;
20794;SDS011;28087;-33.874;151.240;2023-10-09T02:40:42;4.70;;;0.90;;
20794;SDS011;28087;-33.874;151.240;2023-10-09T02:44:20;5.88;;;1.10;;
20794;SDS011;28087;-33.874;151.240;2023-10-09T02:47:36;4.97;;;0.90;;
20794;SDS011;28087;-33.874;151.240;2023-10-09T02:50:44;4.40;;;1.10;;
20794;SDS011;28087;-33.874;151.240;2023-10-09T02:53:55;3.90;;;1.00;;
20794;SDS011;28087;-33.874;151.240;2023-10-09T02:57:16;5.75;;;1.13;;
20794;SDS011;28087;-33.874;151.240;2023-10-09T03:00:27;3.80;;;0.93;;
20794;SDS011;28087;-33.874;151.240;2023-10-09T03:03:35;5.72;;;1.38;;
20794;SDS011;28087;-33.874;151.240;2023-10-09T03:06:45;6.88;;;1.20;;
20794;SDS011;28087;-33.874;151.240;2023-10-09T03:09:53;4.78;;;1.10;;
20794;SDS011;28087;-33.874;151.240;2023-10-09T03:13:06;4.60;;;1.10;;
20794;SDS011;28087;-33.874;151.240;2023-10-09T03:16:19;5.03;;;1.20;;
20794;SDS011;28087;-33.874;151.240;2023-10-09T03:19:19;5.40;;;1.10;;
20794;SDS011;28087;-33.874;151.240;2023-10-09T03:22:21;5.75;;;1.15;;
20794;SDS011;28087;-33.874;151.240;2023-10-09T03:25:27;3.75;;;0.88;;
20794;SDS011;28087;-33.874;151.240;2023-10-09T03:28:35;8.35;;;1.30;;
20794;SDS011;28087;-33.874;151.240;2023-10-09T03:31:45;4.75;;;1.20;;
20794;SDS011;28087;-33.874;151.240;2023-10-09T03:34:53;7.45;;;1.25;;
20794;SDS011;28087;-33.874;151.240;2023-10-09T03:38:04;5.45;;;1.27;;
20794;SDS011;28087;-33.874;151.240;2023-10-09T03:41:14;4.10;;;1.10;;
20794;SDS011;28087;-33.874;151.240;2023-10-09T03:44:23;4.47;;;1.17;;
20794;SDS011;28087;-33.874;151.240;2023-10-09T03:47:32;5.10;;;1.00;;
20794;SDS011;28087;-33.874;151.240;2023-10-09T03:50:45;3.70;;;0.98;;
20794;SDS011;28087;-33.874;151.240;2023-10-09T03:54:09;4.85;;;0.90;;
20794;SDS011;28087;-33.874;151.240;2023-10-09T03:57:19;3.45;;;1.02;;
20794;SDS011;28087;-33.874;151.240;2023-10-09T04:00:27;5.25;;;1.25;;
20794;SDS011;28087;-33.874;151.240;2023-10-09T04:03:45;7.53;;;1.33;;
20794;SDS011;28087;-33.874;151.240;2023-10-09T04:06:57;7.82;;;1.23;;
20794;SDS011;28087;-33.874;151.240;2023-10-09T04:10:05;5.00;;;1.00;;
20794;SDS011;28087;-33.874;151.240;2023-10-09T04:13:32;4.40;;;1.17;;
20794;SDS011;28087;-33.874;151.240;2023-10-09T04:16:45;5.68;;;1.27;;
20794;SDS011;28087;-33.874;151.240;2023-10-09T04:20:16;9.38;;;1.27;;
20794;SDS011;28087;-33.874;151.240;2023-10-09T04:23:40;4.25;;;1.00;;
20794;SDS011;28087;-33.874;151.240;2023-10-09T04:27:18;4.90;;;1.13;;
20794;SDS011;28087;-33.874;151.240;2023-10-09T04:30:36;8.15;;;1.45;;
20794;SDS011;28087;-33.874;151.240;2023-10-09T04:33:44;5.28;;;1.13;;
20794;SDS011;28087;-33.874;151.240;2023-10-09T04:37:29;8.13;;;1.60;;
20794;SDS011;28087;-33.874;151.240;2023-10-09T04:40:46;6.25;;;1.20;;
20794;SDS011;28087;-33.874;151.240;2023-10-09T04:43:57;7.50;;;1.40;;
20794;SDS011;28087;-33.874;151.240;2023-10-09T04:47:15;6.85;;;1.10;;
20794;SDS011;28087;-33.874;151.240;2023-10-09T04:50:25;3.97;;;1.20;;
20794;SDS011;28087;-33.874;151.240;2023-10-09T04:54:03;5.50;;;1.15;;
20794;SDS011;28087;-33.874;151.240;2023-10-09T04:57:29;5.55;;;1.30;;
20794;SDS011;28087;-33.874;151.240;2023-10-09T05:00:42;6.30;;;1.33;;
20794;SDS011;28087;-33.874;151.240;2023-10-09T05:04:08;8.27;;;1.45;;
20794;SDS011;28087;-33.874;151.240;2023-10-09T05:07:37;5.40;;;1.10;;
20794;SDS011;28087;-33.874;151.240;2023-10-09T05:10:54;7.15;;;1.33;;
20794;SDS011;28087;-33.874;151.240;2023-10-09T05:14:11;7.22;;;1.67;;
20794;SDS011;28087;-33.874;151.240;2023-10-09T05:17:24;12.07;;;1.75;;
20794;SDS011;28087;-33.874;151.240;2023-10-09T05:20:36;7.47;;;1.48;;
20794;SDS011;28087;-33.874;151.240;2023-10-09T05:24:05;8.13;;;1.45;;
20794;SDS011;28087;-33.874;151.240;2023-10-09T05:27:17;7.10;;;1.35;;
20794;SDS011;28087;-33.874;151.240;2023-10-09T05:30:39;4.03;;;1.27;;
20794;SDS011;28087;-33.874;151.240;2023-10-09T05:33:59;6.88;;;1.40;;
20794;SDS011;28087;-33.874;151.240;2023-10-09T05:37:15;6.75;;;1.30;;
20794;SDS011;28087;-33.874;151.240;2023-10-09T05:40:15;7.45;;;1.40;;
20794;SDS011;28087;-33.874;151.240;2023-10-09T05:43:32;8.40;;;1.48;;
20794;SDS011;28087;-33.874;151.240;2023-10-09T05:46:57;7.47;;;1.40;;
20794;SDS011;28087;-33.874;151.240;2023-10-09T05:50:32;8.85;;;1.60;;
20794;SDS011;28087;-33.874;151.240;2023-10-09T05:54:03;7.10;;;1.30;;
20794;SDS011;28087;-33.874;151.240;2023-10-09T05:57:35;9.63;;;1.70;;
20794;SDS011;28087;-33.874;151.240;2023-10-09T06:00:59;9.25;;;1.50;;
20794;SDS011;28087;-33.874;151.240;2023-10-09T06:04:23;6.43;;;1.10;;
20794;SDS011;28087;-33.874;151.240;2023-10-09T06:07:46;7.03;;;1.30;;
20794;SDS011;28087;-33.874;151.240;2023-10-09T06:11:04;8.40;;;1.23;;
20794;SDS011;28087;-33.874;151.240;2023-10-09T06:14:23;5.82;;;1.38;;
20794;SDS011;28087;-33.874;151.240;2023-10-09T06:17:33;6.93;;;1.42;;
20794;SDS011;28087;-33.874;151.240;2023-10-09T06:20:47;5.63;;;1.33;;
20794;SDS011;28087;-33.874;151.240;2023-10-09T06:24:09;6.13;;;1.13;;
20794;SDS011;28087;-33.874;151.240;2023-10-09T06:27:15;9.48;;;1.33;;
20794;SDS011;28087;-33.874;151.240;2023-10-09T06:30:48;10.38;;;1.50;;
20794;SDS011;28087;-33.874;151.240;2023-10-09T06:34:16;8.90;;;1.48;;
20794;SDS011;28087;-33.874;151.240;2023-10-09T06:37:28;9.98;;;1.42;;
20794;SDS011;28087;-33.874;151.240;2023-10-09T06:40:54;8.25;;;1.50;;
20794;SDS011;28087;-33.874;151.240;2023-10-09T06:44:08;8.35;;;1.35;;
20794;SDS011;28087;-33.874;151.240;2023-10-09T06:47:30;9.98;;;1.90;;
20794;SDS011;28087;-33.874;151.240;2023-10-09T06:50:52;6.20;;;1.45;;
20794;SDS011;28087;-33.874;151.240;2023-10-09T06:54:04;7.28;;;1.27;;
20794;SDS011;28087;-33.874;151.240;2023-10-09T06:57:17;9.40;;;1.67;;
20794;SDS011;28087;-33.874;151.240;2023-10-09T07:00:38;8.45;;;1.75;;
20794;SDS011;28087;-33.874;151.240;2023-10-09T07:04:12;8.35;;;1.60;;
20794;SDS011;28087;-33.874;151.240;2023-10-09T07:07:44;7.82;;;1.30;;
20794;SDS011;28087;-33.874;151.240;2023-10-09T07:11:13;9.10;;;1.67;;
20794;SDS011;28087;-33.874;151.240;2023-10-09T07:14:41;9.38;;;1.30;;
20794;SDS011;28087;-33.874;151.240;2023-10-09T07:18:16;7.90;;;1.50;;
20794;SDS011;28087;-33.874;151.240;2023-10-09T07:21:42;7.50;;;1.60;;
20794;SDS011;28087;-33.874;151.240;2023-10-09T07:24:56;8.25;;;1.80;;
20794;SDS011;28087;-33.874;151.240;2023-10-09T07:28:11;9.90;;;1.73;;
20794;SDS011;28087;-33.874;151.240;2023-10-09T07:31:33;10.02;;;1.65;;
20794;SDS011;28087;-33.874;151.240;2023-10-09T07:34:41;10.55;;;1.60;;
20794;SDS011;28087;-33.874;151.240;2023-10-09T07:37:57;11.40;;;1.95;;
20794;SDS011;28087;-33.874;151.240;2023-10-09T07:41:07;7.40;;;1.33;;
20794;SDS011;28087;-33.874;151.240;2023-10-09T07:44:39;7.35;;;1.67;;
20794;SDS011;28087;-33.874;151.240;2023-10-09T07:47:51;9.43;;;1.75;;
20794;SDS011;28087;-33.874;151.240;2023-10-09T07:51:02;6.22;;;1.50;;
20794;SDS011;28087;-33.874;151.240;2023-10-09T07:54:09;11.30;;;2.13;;
20794;SDS011;28087;-33.874;151.240;2023-10-09T07:57:29;10.38;;;1.73;;
20794;SDS011;28087;-33.874;151.240;2023-10-09T08:00:48;9.05;;;1.60;;
20794;SDS011;28087;-33.874;151.240;2023-10-09T08:04:07;6.38;;;1.45;;
20794;SDS011;28087;-33.874;151.240;2023-10-09T08:07:17;7.82;;;1.50;;
20794;SDS011;28087;-33.874;151.240;2023-10-09T08:10:51;9.30;;;1.63;;
20794;SDS011;28087;-33.874;151.240;2023-10-09T08:14:13;11.73;;;1.80;;
20794;SDS011;28087;-33.874;151.240;2023-10-09T08:17:38;6.80;;;1.38;;
20794;SDS011;28087;-33.874;151.240;2023-10-09T08:20:48;9.60;;;2.03;;
20794;SDS011;28087;-33.874;151.240;2023-10-09T08:24:13;10.60;;;1.45;;
20794;SDS011;28087;-33.874;151.240;2023-10-09T08:27:33;8.63;;;1.45;;
20794;SDS011;28087;-33.874;151.240;2023-10-09T08:30:52;7.38;;;1.38;;
20794;SDS011;28087;-33.874;151.240;2023-10-09T08:34:15;8.43;;;1.60;;
20794;SDS011;28087;-33.874;151.240;2023-10-09T08:37:46;8.50;;;1.40;;
20794;SDS011;28087;-33.874;151.240;2023-10-09T08:40:57;9.73;;;1.80;;
20794;SDS011;28087;-33.874;151.240;2023-10-09T08:44:20;10.30;;;1.63;;
20794;SDS011;28087;-33.874;151.240;2023-10-09T08:47:31;8.93;;;1.48;;
20794;SDS011;28087;-33.874;151.240;2023-10-09T08:50:42;11.57;;;1.55;;
20794;SDS011;28087;-33.874;151.240;2023-10-09T08:53:52;9.00;;;1.50;;
20794;SDS011;28087;-33.874;151.240;2023-10-09T08:56:54;5.80;;;1.20;;
20794;SDS011;28087;-33.874;151.240;2023-10-09T08:59:57;6.32;;;1.30;;
20794;SDS011;28087;-33.874;151.240;2023-10-09T09:03:07;8.57;;;1.52;;
20794;SDS011;28087;-33.874;151.240;2023-10-09T09:06:18;7.70;;;1.50;;
20794;SDS011;28087;-33.874;151.240;2023-10-09T09:09:27;8.25;;;1.30;;
20794;SDS011;28087;-33.874;151.240;2023-10-09T09:12:34;9.23;;;1.60;;
20794;SDS011;28087;-33.874;151.240;2023-10-09T09:15:47;6.65;;;1.05;;
20794;SDS011;28087;-33.874;151.240;2023-10-09T09:19:02;8.50;;;1.23;;
20794;SDS011;28087;-33.874;151.240;2023-10-09T09:22:15;8.23;;;1.85;;
20794;SDS011;28087;-33.874;151.240;2023-10-09T09:25:23;10.35;;;1.33;;
20794;SDS011;28087;-33.874;151.240;2023-10-09T09:28:34;7.25;;;1.13;;
20794;SDS011;28087;-33.874;151.240;2023-10-09T09:31:51;8.48;;;1.50;;
20794;SDS011;28087;-33.874;151.240;2023-10-09T09:35:14;8.65;;;1.70;;
20794;SDS011;28087;-33.874;151.240;2023-10-09T09:38:25;9.73;;;1.60;;
20794;SDS011;28087;-33.874;151.240;2023-10-09T09:41:46;9.60;;;1.95;;
20794;SDS011;28087;-33.874;151.240;2023-10-09T09:45:00;13.00;;;2.00;;
20794;SDS011;28087;-33.874;151.240;2023-10-09T09:48:09;11.00;;;1.90;;
20794;SDS011;28087;-33.874;151.240;2023-10-09T09:51:18;11.80;;;1.90;;
20794;SDS011;28087;-33.874;151.240;2023-10-09T09:54:27;11.95;;;1.60;;
20794;SDS011;28087;-33.874;151.240;2023-10-09T09:57:34;7.63;;;2.60;;
20794;SDS011;28087;-33.874;151.240;2023-10-09T10:00:43;10.23;;;1.85;;
20794;SDS011;28087;-33.874;151.240;2023-10-09T10:03:54;9.55;;;1.60;;
20794;SDS011;28087;-33.874;151.240;2023-10-09T10:07:05;11.25;;;1.80;;
20794;SDS011;28087;-33.874;151.240;2023-10-09T10:13:55;12.90;;;1.83;;
20794;SDS011;28087;-33.874;151.240;2023-10-09T10:17:05;11.68;;;1.60;;
20794;SDS011;28087;-33.874;151.240;2023-10-09T10:20:17;12.07;;;2.10;;
20794;SDS011;28087;-33.874;151.240;2023-10-09T10:23:29;13.85;;;1.77;;
20794;SDS011;28087;-33.874;151.240;2023-10-09T10:26:37;16.38;;;2.28;;
20794;SDS011;28087;-33.874;151.240;2023-10-09T10:33:22;15.73;;;4.18;;
20794;SDS011;28087;-33.874;151.240;2023-10-09T10:36:32;20.38;;;6.57;;
20794;SDS011;28087;-33.874;151.240;2023-10-09T10:39:51;14.02;;;3.10;;
20794;SDS011;28087;-33.874;151.240;2023-10-09T10:43:14;17.00;;;4.38;;
20794;SDS011;28087;-33.874;151.240;2023-10-09T10:46:31;15.73;;;2.40;;
20794;SDS011;28087;-33.874;151.240;2023-10-09T10:49:45;15.18;;;3.50;;
20794;SDS011;28087;-33.874;151.240;2023-10-09T10:53:12;18.10;;;2.97;;
20794;SDS011;28087;-33.874;151.240;2023-10-09T10:56:20;16.80;;;3.80;;
20794;SDS011;28087;-33.874;151.240;2023-10-09T10:59:39;9.73;;;2.10;;
20794;SDS011;28087;-33.874;151.240;2023-10-09T11:03:02;11.98;;;2.20;;
20794;SDS011;28087;-33.874;151.240;2023-10-09T11:06:12;11.35;;;1.77;;
20794;SDS011;28087;-33.874;151.240;2023-10-09T11:09:20;12.73;;;1.80;;
20794;SDS011;28087;-33.874;151.240;2023-10-09T11:12:46;12.85;;;2.10;;
20794;SDS011;28087;-33.874;151.240;2023-10-09T11:16:21;9.82;;;2.15;;
20794;SDS011;28087;-33.874;151.240;2023-10-09T11:19:43;9.95;;;1.80;;
20794;SDS011;28087;-33.874;151.240;2023-10-09T11:22:51;12.95;;;2.30;;
20794;SDS011;28087;-33.874;151.240;2023-10-09T11:26:25;10.25;;;1.75;;
20794;SDS011;28087;-33.874;151.240;2023-10-09T11:29:40;8.10;;;1.60;;
20794;SDS011;28087;-33.874;151.240;2023-10-09T11:33:06;13.80;;;2.17;;
20794;SDS011;28087;-33.874;151.240;2023-10-09T11:36:12;10.77;;;1.63;;
20794;SDS011;28087;-33.874;151.240;2023-10-09T11:39:29;17.55;;;2.17;;
20794;SDS011;28087;-33.874;151.240;2023-10-09T11:42:49;12.70;;;2.30;;
20794;SDS011;28087;-33.874;151.240;2023-10-09T11:46:09;12.43;;;1.90;;
20794;SDS011;28087;-33.874;151.240;2023-10-09T11:49:31;11.98;;;1.83;;
20794;SDS011;28087;-33.874;151.240;2023-10-09T11:56:30;9.45;;;1.75;;
20794;SDS011;28087;-33.874;151.240;2023-10-09T11:59:38;14.27;;;2.10;;
20794;SDS011;28087;-33.874;151.240;2023-10-09T12:02:51;10.43;;;1.70;;
20794;SDS011;28087;-33.874;151.240;2023-10-09T12:06:03;8.82;;;2.13;;
20794;SDS011;28087;-33.874;151.240;2023-10-09T12:09:09;9.48;;;2.00;;
20794;SDS011;28087;-33.874;151.240;2023-10-09T12:12:23;6.50;;;1.70;;
20794;SDS011;28087;-33.874;151.240;2023-10-09T12:15:31;10.77;;;1.85;;
20794;SDS011;28087;-33.874;151.240;2023-10-09T12:18:43;9.40;;;1.80;;
20794;SDS011;28087;-33.874;151.240;2023-10-09T12:21:52;10.52;;;1.77;;
20794;SDS011;28087;-33.874;151.240;2023-10-09T12:25:00;8.35;;;1.70;;
20794;SDS011;28087;-33.874;151.240;2023-10-09T12:28:09;9.82;;;1.73;;
20794;SDS011;28087;-33.874;151.240;2023-10-09T12:31:19;9.68;;;1.77;;
20794;SDS011;28087;-33.874;151.240;2023-10-09T12:34:31;8.18;;;1.60;;
20794;SDS011;28087;-33.874;151.240;2023-10-09T12:37:43;9.82;;;1.90;;
20794;SDS011;28087;-33.874;151.240;2023-10-09T12:40:51;8.13;;;1.73;;
20794;SDS011;28087;-33.874;151.240;2023-10-09T12:44:19;9.38;;;1.73;;
20794;SDS011;28087;-33.874;151.240;2023-10-09T12:47:28;8.95;;;1.75;;
20794;SDS011;28087;-33.874;151.240;2023-10-09T12:50:38;11.88;;;1.85;;
20794;SDS011;28087;-33.874;151.240;2023-10-09T12:53:55;7.68;;;1.75;;
20794;SDS011;28087;-33.874;151.240;2023-10-09T12:57:04;11.63;;;1.90;;
20794;SDS011;28087;-33.874;151.240;2023-10-09T13:00:16;8.05;;;1.60;;
20794;SDS011;28087;-33.874;151.240;2023-10-09T13:03:25;12.77;;;2.13;;
20794;SDS011;28087;-33.874;151.240;2023-10-09T13:06:37;8.85;;;2.03;;
20794;SDS011;28087;-33.874;151.240;2023-10-09T13:09:43;12.63;;;2.30;;
20794;SDS011;28087;-33.874;151.240;2023-10-09T13:13:04;7.57;;;1.80;;
20794;SDS011;28087;-33.874;151.240;2023-10-09T13:16:10;9.98;;;2.10;;
20794;SDS011;28087;-33.874;151.240;2023-10-09T13:19:22;12.50;;;2.33;;
20794;SDS011;28087;-33.874;151.240;2023-10-09T13:22:32;8.88;;;2.20;;
20794;SDS011;28087;-33.874;151.240;2023-10-09T13:25:40;11.05;;;1.90;;
20794;SDS011;28087;-33.874;151.240;2023-10-09T13:28:47;10.27;;;2.17;;
20794;SDS011;28087;-33.874;151.240;2023-10-09T13:31:55;10.27;;;2.10;;
20794;SDS011;28087;-33.874;151.240;2023-10-09T13:35:11;11.43;;;2.17;;
20794;SDS011;28087;-33.874;151.240;2023-10-09T13:38:36;12.13;;;1.90;;
20794;SDS011;28087;-33.874;151.240;2023-10-09T13:41:42;12.00;;;2.15;;
20794;SDS011;28087;-33.874;151.240;2023-10-09T13:44:54;13.13;;;2.75;;
20794;SDS011;28087;-33.874;151.240;2023-10-09T13:48:12;14.75;;;2.40;;
20794;SDS011;28087;-33.874;151.240;2023-10-09T13:51:20;12.43;;;2.45;;
20794;SDS011;28087;-33.874;151.240;2023-10-09T13:54:33;15.32;;;3.17;;
20794;SDS011;28087;-33.874;151.240;2023-10-09T13:57:43;15.82;;;2.72;;
20794;SDS011;28087;-33.874;151.240;2023-10-09T14:00:53;17.58;;;3.40;;
20794;SDS011;28087;-33.874;151.240;2023-10-09T14:04:05;16.98;;;3.40;;
20794;SDS011;28087;-33.874;151.240;2023-10-09T14:07:16;15.82;;;3.17;;
20794;SDS011;28087;-33.874;151.240;2023-10-09T14:10:24;15.77;;;3.15;;
20794;SDS011;28087;-33.874;151.240;2023-10-09T14:13:37;13.63;;;2.75;;
20794;SDS011;28087;-33.874;151.240;2023-10-09T14:16:59;11.98;;;2.45;;
20794;SDS011;28087;-33.874;151.240;2023-10-09T14:20:12;14.07;;;2.97;;
20794;SDS011;28087;-33.874;151.240;2023-10-09T14:23:36;11.77;;;2.72;;
20794;SDS011;28087;-33.874;151.240;2023-10-09T14:26:46;9.35;;;2.28;;
20794;SDS011;28087;-33.874;151.240;2023-10-09T14:29:59;9.45;;;2.53;;
20794;SDS011;28087;-33.874;151.240;2023-10-09T14:33:11;13.32;;;2.90;;
20794;SDS011;28087;-33.874;151.240;2023-10-09T14:36:37;17.55;;;3.00;;
20794;SDS011;28087;-33.874;151.240;2023-10-09T14:39:50;14.20;;;3.25;;
20794;SDS011;28087;-33.874;151.240;2023-10-09T14:43:03;21.00;;;4.38;;
20794;SDS011;28087;-33.874;151.240;2023-10-09T14:46:28;16.00;;;3.50;;
20794;SDS011;28087;-33.874;151.240;2023-10-09T14:49:48;20.65;;;4.43;;
20794;SDS011;28087;-33.874;151.240;2023-10-09T14:53:06;18.20;;;4.55;;
20794;SDS011;28087;-33.874;151.240;2023-10-09T14:56:14;17.90;;;3.80;;
20794;SDS011;28087;-33.874;151.240;2023-10-09T14:59:27;16.77;;;4.22;;
20794;SDS011;28087;-33.874;151.240;2023-10-09T15:02:36;16.67;;;4.20;;
20794;SDS011;28087;-33.874;151.240;2023-10-09T15:05:46;22.13;;;4.18;;
20794;SDS011;28087;-33.874;151.240;2023-10-09T15:08:56;20.60;;;4.45;;
20794;SDS011;28087;-33.874;151.240;2023-10-09T15:12:20;24.90;;;5.20;;
20794;SDS011;28087;-33.874;151.240;2023-10-09T15:15:42;18.42;;;4.15;;
20794;SDS011;28087;-33.874;151.240;2023-10-09T15:19:00;19.35;;;4.22;;
20794;SDS011;28087;-33.874;151.240;2023-10-09T15:22:10;19.00;;;4.05;;
20794;SDS011;28087;-33.874;151.240;2023-10-09T15:25:21;17.17;;;4.13;;
20794;SDS011;28087;-33.874;151.240;2023-10-09T15:28:29;23.08;;;4.78;;
20794;SDS011;28087;-33.874;151.240;2023-10-09T15:31:45;20.08;;;4.53;;
20794;SDS011;28087;-33.874;151.240;2023-10-09T15:34:55;20.95;;;4.88;;
20794;SDS011;28087;-33.874;151.240;2023-10-09T15:38:07;18.17;;;4.43;;
20794;SDS011;28087;-33.874;151.240;2023-10-09T15:41:20;21.77;;;4.78;;
20794;SDS011;28087;-33.874;151.240;2023-10-09T15:44:28;25.52;;;5.43;;
20794;SDS011;28087;-33.874;151.240;2023-10-09T15:47:39;19.05;;;4.53;;
20794;SDS011;28087;-33.874;151.240;2023-10-09T15:50:51;15.32;;;4.10;;
20794;SDS011;28087;-33.874;151.240;2023-10-09T15:53:58;17.17;;;4.18;;
20794;SDS011;28087;-33.874;151.240;2023-10-09T15:57:09;14.77;;;3.55;;
20794;SDS011;28087;-33.874;151.240;2023-10-09T16:00:13;14.93;;;3.88;;
20794;SDS011;28087;-33.874;151.240;2023-10-09T16:03:17;11.27;;;3.60;;
20794;SDS011;28087;-33.874;151.240;2023-10-09T16:06:25;13.80;;;3.78;;
20794;SDS011;28087;-33.874;151.240;2023-10-09T16:09:35;12.77;;;3.40;;
20794;SDS011;28087;-33.874;151.240;2023-10-09T16:12:45;12.15;;;3.50;;
20794;SDS011;28087;-33.874;151.240;2023-10-09T16:15:54;11.98;;;3.63;;
20794;SDS011;28087;-33.874;151.240;2023-10-09T16:19:08;12.30;;;2.97;;
20794;SDS011;28087;-33.874;151.240;2023-10-09T16:22:16;7.30;;;2.80;;
20794;SDS011;28087;-33.874;151.240;2023-10-09T16:25:24;12.68;;;3.28;;
20794;SDS011;28087;-33.874;151.240;2023-10-09T16:28:34;14.65;;;2.90;;
20794;SDS011;28087;-33.874;151.240;2023-10-09T16:31:43;15.02;;;3.00;;
20794;SDS011;28087;-33.874;151.240;2023-10-09T16:34:58;13.20;;;3.10;;
20794;SDS011;28087;-33.874;151.240;2023-10-09T16:38:09;15.18;;;3.25;;
20794;SDS011;28087;-33.874;151.240;2023-10-09T16:41:18;12.85;;;3.30;;
20794;SDS011;28087;-33.874;151.240;2023-10-09T16:44:30;12.27;;;3.47;;
20794;SDS011;28087;-33.874;151.240;2023-10-09T16:47:37;13.40;;;3.47;;
20794;SDS011;28087;-33.874;151.240;2023-10-09T16:50:46;13.40;;;3.80;;
20794;SDS011;28087;-33.874;151.240;2023-10-09T16:53:55;13.77;;;3.72;;
20794;SDS011;28087;-33.874;151.240;2023-10-09T16:57:05;11.43;;;3.50;;
20794;SDS011;28087;-33.874;151.240;2023-10-09T17:00:17;13.68;;;3.58;;
20794;SDS011;28087;-33.874;151.240;2023-10-09T17:03:30;14.68;;;4.07;;
20794;SDS011;28087;-33.874;151.240;2023-10-09T17:06:40;11.05;;;3.50;;
20794;SDS011;28087;-33.874;151.240;2023-10-09T17:09:47;14.93;;;3.80;;
20794;SDS011;28087;-33.874;151.240;2023-10-09T17:12:55;11.43;;;3.60;;
20794;SDS011;28087;-33.874;151.240;2023-10-09T17:16:11;12.02;;;3.63;;
20794;SDS011;28087;-33.874;151.240;2023-10-09T17:19:20;14.90;;;3.80;;
20794;SDS011;28087;-33.874;151.240;2023-10-09T17:22:32;13.38;;;3.60;;
20794;SDS011;28087;-33.874;151.240;2023-10-09T17:25:39;18.25;;;3.63;;
20794;SDS011;28087;-33.874;151.240;2023-10-09T17:28:53;13.05;;;3.58;;
20794;SDS011;28087;-33.874;151.240;2023-10-09T17:32:01;15.50;;;3.75;;
20794;SDS011;28087;-33.874;151.240;2023-10-09T17:35:11;10.70;;;3.53;;
20794;SDS011;28087;-33.874;151.240;2023-10-09T17:38:19;15.95;;;3.30;;
20794;SDS011;28087;-33.874;151.240;2023-10-09T17:41:30;13.57;;;3.45;;
20794;SDS011;28087;-33.874;151.240;2023-10-09T17:44:36;14.45;;;3.38;;
20794;SDS011;28087;-33.874;151.240;2023-10-09T17:47:45;13.30;;;3.25;;
20794;SDS011;28087;-33.874;151.240;2023-10-09T17:50:56;13.68;;;3.85;;
20794;SDS011;28087;-33.874;151.240;2023-10-09T17:54:10;11.82;;;3.60;;
20794;SDS011;28087;-33.874;151.240;2023-10-09T17:57:21;14.40;;;3.50;;
20794;SDS011;28087;-33.874;151.240;2023-10-09T18:00:30;12.55;;;3.50;;
20794;SDS011;28087;-33.874;151.240;2023-10-09T18:03:39;15.75;;;3.53;;
20794;SDS011;28087;-33.874;151.240;2023-10-09T18:06:45;15.07;;;3.30;;
20794;SDS011;28087;-33.874;151.240;2023-10-09T18:09:55;14.68;;;3.50;;
20794;SDS011;28087;-33.874;151.240;2023-10-09T18:13:07;15.93;;;3.53;;
20794;SDS011;28087;-33.874;151.240;2023-10-09T18:16:15;15.55;;;3.70;;
20794;SDS011;28087;-33.874;151.240;2023-10-09T18:19:22;17.08;;;3.97;;
20794;SDS011;28087;-33.874;151.240;2023-10-09T18:22:29;14.55;;;3.50;;
20794;SDS011;28087;-33.874;151.240;2023-10-09T18:25:40;18.27;;;4.38;;
20794;SDS011;28087;-33.874;151.240;2023-10-09T18:28:49;17.40;;;3.50;;
20794;SDS011;28087;-33.874;151.240;2023-10-09T18:31:57;16.65;;;3.75;;
20794;SDS011;28087;-33.874;151.240;2023-10-09T18:35:05;13.68;;;3.33;;
20794;SDS011;28087;-33.874;151.240;2023-10-09T18:38:12;11.25;;;3.30;;
20794;SDS011;28087;-33.874;151.240;2023-10-09T18:41:22;14.77;;;3.60;;
20794;SDS011;28087;-33.874;151.240;2023-10-09T18:44:29;14.70;;;3.30;;